Time;durP1;ratioP1;P1;durP2;ratioP2;P2;SDS_P1;SDS_P2;PMS_P1;PMS_P2;Temp;Humidity;BMP_temperature;BMP_pressure;BME280_temperature;BME280_humidity;BME280_pressure;Samples;Min_cycle;Max_cycle;Signal;HPM_P1;HPM_P2
2022/02/03 00:05:47;;;;;;;8.90;4.90;;;;;;;0.87;81.06;99741.41;207821;1316;138788;-68
2022/02/03 00:27:50;;;;;;;11.00;6.80;;;;;;;0.75;81.38;99785.83;207425;1317;140349;-71
2022/02/03 00:38:43;;;;;;;13.60;7.00;;;;;;;0.71;81.28;99791.88;208067;1317;139470;-70
2022/02/03 00:49:10;;;;;;;8.30;6.20;;;;;;;0.77;81.23;99831.48;208560;1315;138961;-71
2022/02/03 00:54:16;;;;;;;9.20;6.20;;;;;;;0.75;81.21;99834.34;207604;1318;139166;-78
2022/02/03 00:59:30;;;;;;;12.00;6.50;;;;;;;0.72;81.38;99849.20;207605;1318;138971;-76
2022/02/03 01:04:36;;;;;;;7.10;4.80;;;;;;;0.68;81.20;99846.77;207810;1317;139875;-73
2022/02/03 01:09:49;;;;;;;15.40;6.80;;;;;;;0.70;81.35;99848.26;207771;1315;140316;-72
2022/02/03 01:15:12;;;;;;;11.30;7.60;;;;;;;0.74;81.26;99852.97;209537;1317;139592;-74
2022/02/03 01:37:17;;;;;;;12.10;6.40;;;;;;;0.78;81.17;99868.77;208973;1317;142180;-81
2022/02/03 01:52:52;;;;;;;18.00;7.70;;;;;;;0.76;81.65;99879.14;207642;1318;139103;-80
2022/02/03 01:58:13;;;;;;;14.00;8.40;;;;;;;0.79;81.59;99882.84;207303;1316;140082;-75
2022/02/03 02:03:22;;;;;;;17.00;8.30;;;;;;;0.79;81.55;99887.92;207620;1317;142200;-74
2022/02/03 02:08:43;;;;;;;15.50;8.60;;;;;;;0.78;81.67;99888.59;207294;1316;140103;-74
2022/02/03 02:47:26;;;;;;;10.90;7.20;;;;;;;0.61;81.81;99937.67;207651;1319;139891;-72
2022/02/03 02:52:46;;;;;;;12.00;6.00;;;;;;;0.60;82.01;99947.52;207887;1317;140185;-75
2022/02/03 02:58:17;;;;;;;9.10;6.50;;;;;;;0.63;81.96;99962.88;207651;1316;141076;-74
2022/02/03 03:31:19;;;;;;;5.20;4.70;;;;;;;0.60;81.63;100000.80;209207;1317;139332;-77
2022/02/03 03:36:08;;;;;;;4.50;3.80;;;;;;;0.58;81.65;100006.16;209152;1318;150919;-72
2022/02/03 03:41:18;;;;;;;4.00;3.40;;;;;;;0.56;81.60;100005.33;209515;1317;140762;-78
2022/02/03 03:46:26;;;;;;;5.60;4.00;;;;;;;0.58;81.36;100006.88;208432;1318;140168;-71
2022/02/03 03:51:47;;;;;;;6.80;2.70;;;;;;;0.52;81.04;100016.21;208663;1317;139037;-71
2022/02/03 03:57:11;;;;;;;4.80;3.40;;;;;;;0.45;81.12;100018.42;207306;1316;139969;-70
2022/02/03 05:05:10;;;;;;;4.80;2.30;;;;;;;0.40;80.50;100025.92;207377;1317;141278;-71
2022/02/03 05:22:29;;;;;;;2.90;2.50;;;;;;;0.31;80.34;100052.48;208082;1316;140307;-72
2022/02/03 05:35:19;;;;;;;2.60;2.40;;;;;;;0.23;80.02;100065.60;209196;1317;139638;-69
2022/02/03 06:27:29;;;;;;;4.20;2.70;;;;;;;0.11;78.69;100107.80;207877;1315;140958;-71
2022/02/03 06:32:43;;;;;;;3.90;1.90;;;;;;;0.11;78.94;100116.02;207939;1317;140485;-73
2022/02/03 06:37:48;;;;;;;2.80;2.60;;;;;;;0.15;79.19;100123.34;207420;1316;140909;-76
2022/02/03 06:42:55;;;;;;;4.00;3.30;;;;;;;0.17;79.09;100132.89;207040;1318;140130;-67
2022/02/03 06:48:03;;;;;;;4.90;3.70;;;;;;;0.16;79.38;100131.92;207199;1316;141034;-68
2022/02/03 06:53:17;;;;;;;5.80;3.30;;;;;;;0.16;79.18;100122.62;206951;1317;140206;-67
2022/02/03 07:03:58;;;;;;;7.40;5.40;;;;;;;0.20;79.58;100114.21;207206;1318;141139;-74
2022/02/03 07:09:07;;;;;;;8.00;5.00;;;;;;;0.18;79.37;100114.70;206897;1318;141616;-71
2022/02/03 07:14:10;;;;;;;7.50;4.50;;;;;;;0.16;79.72;100125.44;207090;1318;140247;-70
2022/02/03 07:19:24;;;;;;;6.60;5.10;;;;;;;0.19;79.53;100130.23;207523;1318;161984;-68
2022/02/03 07:24:29;;;;;;;11.40;6.20;;;;;;;0.25;79.77;100121.39;208753;1318;141155;-69
2022/02/03 07:29:33;;;;;;;10.30;5.60;;;;;;;0.29;79.95;100122.32;208168;1318;140617;-70
2022/02/03 07:34:36;;;;;;;8.40;5.80;;;;;;;0.37;79.91;100125.53;208953;1316;139687;-72
2022/02/03 07:39:53;;;;;;;8.60;4.90;;;;;;;0.49;79.96;100121.35;207756;1317;142944;-71
2022/02/03 07:45:06;;;;;;;11.00;7.00;;;;;;;0.65;79.51;100117.80;207165;1315;141015;-71
2022/02/03 07:50:12;;;;;;;12.40;6.40;;;;;;;0.75;79.66;100120.46;209417;1318;141868;-74
2022/02/03 07:55:17;;;;;;;7.70;6.00;;;;;;;0.80;79.81;100125.17;208978;1316;138752;-74
2022/02/03 08:00:22;;;;;;;9.80;7.10;;;;;;;0.85;79.56;100122.77;208925;1315;139335;-76
2022/02/03 08:05:51;;;;;;;10.00;6.90;;;;;;;0.87;79.59;100120.56;207292;1315;139354;-71
2022/02/03 08:10:59;;;;;;;12.90;7.70;;;;;;;0.92;79.55;100124.27;207458;1318;139922;-73
2022/02/03 08:16:17;;;;;;;15.30;8.80;;;;;;;0.90;79.77;100119.74;206766;1318;140011;-75
2022/02/03 08:21:21;;;;;;;9.80;8.30;;;;;;;0.89;79.99;100125.59;206917;1317;139613;-77
2022/02/03 08:26:37;;;;;;;15.10;8.40;;;;;;;0.90;79.96;100124.66;207105;1315;140336;-75
2022/02/03 08:31:52;;;;;;;14.30;9.10;;;;;;;0.94;80.04;100126.65;207015;1317;139439;-83
2022/02/03 08:36:54;;;;;;;15.00;6.90;;;;;;;0.96;80.24;100122.42;208243;1318;139826;-82
2022/02/03 08:41:57;;;;;;;14.90;9.20;;;;;;;0.97;80.21;100107.75;208498;1315;140981;-86
2022/02/03 08:47:08;;;;;;;12.00;9.10;;;;;;;1.07;80.22;100106.74;203663;1315;5428854;-81
2022/02/03 08:52:17;;;;;;;15.90;7.80;;;;;;;1.21;80.37;100100.40;207024;1318;139359;-79
2022/02/03 08:57:32;;;;;;;15.10;9.10;;;;;;;1.36;80.13;100095.89;207346;1317;140244;-80
2022/02/03 09:52:05;;;;;;;13.80;8.60;;;;;;;1.72;80.41;100060.38;207652;1317;140772;-83
2022/02/03 10:02:19;;;;;;;19.70;10.00;;;;;;;1.80;80.26;100053.16;209404;1318;141963;-73
2022/02/03 10:08:02;;;;;;;18.90;11.70;;;;;;;1.92;80.27;100049.02;208932;1315;140316;-81
2022/02/03 10:13:46;;;;;;;15.40;9.30;;;;;;;2.05;80.68;100042.69;207308;1318;140477;-76
2022/02/03 10:19:15;;;;;;;16.00;10.70;;;;;;;2.15;80.41;100043.05;208469;1318;141124;-76
2022/02/03 10:24:31;;;;;;;21.50;10.40;;;;;;;2.20;80.22;100035.26;207885;1316;141610;-75
2022/02/03 10:29:40;;;;;;;17.40;11.00;;;;;;;2.31;80.45;100026.09;207024;1316;139479;-73
2022/02/03 10:34:50;;;;;;;21.50;10.70;;;;;;;2.50;80.55;100022.45;207759;1316;140465;-75
2022/02/03 10:45:45;;;;;;;22.20;13.70;;;;;;;2.94;80.62;100010.73;206372;1318;141240;-76
2022/02/03 10:51:41;;;;;;;22.50;12.10;;;;;;;3.11;80.21;100013.16;207000;1316;140813;-69
2022/02/03 11:13:12;;;;;;;19.80;12.50;;;;;;;3.43;79.52;100000.58;208414;1317;141575;-77
2022/02/03 11:18:17;;;;;;;18.10;11.50;;;;;;;3.47;79.51;99999.09;207249;1317;203858;-76
2022/02/03 11:23:33;;;;;;;16.70;12.20;;;;;;;3.53;79.62;99990.42;208042;1318;139617;-75
2022/02/03 11:34:17;;;;;;;17.00;10.70;;;;;;;3.85;79.35;99978.75;208270;1317;139857;-78
2022/02/03 11:39:48;;;;;;;17.50;9.30;;;;;;;3.94;79.31;99965.98;207028;1316;139656;-78
2022/02/03 11:45:28;;;;;;;15.50;8.90;;;;;;;3.96;79.00;99952.89;208062;1315;140949;-73
2022/02/03 12:02:13;;;;;;;18.40;10.30;;;;;;;4.17;78.65;99948.59;207764;1316;140721;-75
2022/02/03 12:30:06;;;;;;;26.60;12.60;;;;;;;4.30;78.48;99904.66;206878;1318;140035;-79
2022/02/03 12:40:52;;;;;;;8.40;6.50;;;;;;;4.46;78.32;99898.15;208208;1316;140657;-79
2022/02/03 12:45:57;;;;;;;17.90;7.40;;;;;;;4.49;78.24;99891.83;207819;1319;140016;-76
2022/02/03 12:51:16;;;;;;;14.10;7.00;;;;;;;4.56;78.28;99886.70;207961;1316;140441;-78
2022/02/03 12:56:24;;;;;;;18.20;7.00;;;;;;;4.68;77.98;99886.23;207496;1316;139431;-77
2022/02/03 13:01:37;;;;;;;26.60;7.60;;;;;;;4.78;78.01;99884.56;207017;1317;140485;-75
2022/02/03 13:06:59;;;;;;;13.20;8.70;;;;;;;4.85;77.85;99880.10;207463;1316;139968;-77
2022/02/03 13:12:21;;;;;;;13.00;6.90;;;;;;;4.89;77.76;99888.96;207652;1318;140610;-77
2022/02/03 13:17:31;;;;;;;20.60;6.20;;;;;;;4.92;77.60;99886.50;207480;1318;142096;-77
2022/02/03 13:28:40;;;;;;;16.00;5.90;;;;;;;4.83;77.38;99892.48;208453;1318;141469;-74
2022/02/03 13:34:08;;;;;;;;;;;;;;;;;;;;;
2022/02/03 13:39:24;;;;;;;9.30;4.50;;;;;;;4.82;77.00;99880.45;207405;1317;140682;-77
2022/02/03 13:44:31;;;;;;;10.50;5.50;;;;;;;4.74;76.75;99873.84;208128;1317;141317;-78
2022/02/03 13:49:39;;;;;;;15.40;7.10;;;;;;;4.65;76.73;99870.41;207041;1316;141955;-78
2022/02/03 14:21:30;;;;;;;12.30;6.50;;;;;;;4.88;77.02;99861.31;208636;1318;140132;-78
2022/02/03 14:27:01;;;;;;;15.50;5.50;;;;;;;4.93;77.10;99864.23;207204;1318;140593;-78
2022/02/03 14:32:36;;;;;;;15.20;5.60;;;;;;;4.92;76.93;99860.41;207904;1318;143288;-76
2022/02/03 14:38:13;;;;;;;20.10;5.90;;;;;;;4.93;77.08;99860.10;207172;1319;139752;-77
2022/02/03 14:43:41;;;;;;;18.40;6.10;;;;;;;4.93;77.05;99853.84;207470;1318;139807;-72
2022/02/03 14:49:02;;;;;;;10.00;5.20;;;;;;;4.90;76.94;99851.70;207233;1318;233410;-77
2022/02/03 14:59:09;;;;;;;18.90;6.30;;;;;;;4.83;76.97;99850.88;207087;1319;141142;-77
2022/02/03 15:04:23;;;;;;;13.60;5.60;;;;;;;4.77;76.71;99848.11;207114;1317;141789;-79
2022/02/03 15:10:00;;;;;;;;;;;;;;;;;;;;;
2022/02/03 15:15:15;;;;;;;19.40;9.10;;;;;;;4.60;76.61;99848.53;208204;1318;140308;-80
2022/02/03 15:20:18;;;;;;;15.40;5.80;;;;;;;4.47;76.65;99841.14;206891;1318;140307;-80
2022/02/03 15:25:21;;;;;;;20.00;6.10;;;;;;;4.31;76.75;99840.33;206902;1317;139932;-75
2022/02/03 15:30:24;;;;;;;12.10;5.80;;;;;;;4.17;76.67;99838.72;207860;1316;139632;-81
2022/02/03 15:35:36;;;;;;;14.90;6.60;;;;;;;4.08;76.72;99834.79;207193;1319;140136;-76
2022/02/03 15:40:39;;;;;;;10.80;5.90;;;;;;;4.04;76.83;99826.74;207115;1318;139858;-79
2022/02/03 15:45:45;;;;;;;15.70;6.10;;;;;;;3.98;76.94;99829.38;208294;1316;140274;-76
2022/02/03 15:51:13;;;;;;;18.60;5.70;;;;;;;3.91;76.99;99825.35;207121;1318;139450;-72
2022/02/03 16:17:10;;;;;;;16.20;7.50;;;;;;;3.73;76.72;99795.88;207915;1319;140597;-77
2022/02/03 16:23:35;;;;;;;17.50;9.50;;;;;;;3.69;76.72;99794.79;209510;1319;139156;-78
2022/02/03 16:55:20;;;;;;;20.30;9.20;;;;;;;3.57;76.80;99782.94;208533;1316;142479;-75
2022/02/03 17:00:30;;;;;;;27.90;9.60;;;;;;;3.57;76.88;99774.70;208529;1316;141131;-76
2022/02/03 17:05:46;;;;;;;19.90;10.20;;;;;;;3.49;76.86;99771.45;207009;1319;139559;-75
2022/02/03 17:10:49;;;;;;;29.40;12.30;;;;;;;3.42;76.78;99769.39;207552;1321;140256;-74
2022/02/03 17:15:51;;;;;;;16.80;11.00;;;;;;;3.38;76.90;99767.43;207508;1316;139583;-74
2022/02/03 17:21:08;;;;;;;24.10;10.90;;;;;;;3.36;76.89;99764.48;207565;1317;139930;-74
2022/02/03 17:26:19;;;;;;;29.00;13.30;;;;;;;3.33;76.97;99759.71;206707;1319;139217;-76
2022/02/03 18:09:43;;;;;;;27.80;14.40;;;;;;;2.78;77.42;99718.77;207804;1316;140282;-75
2022/02/03 18:31:18;;;;;;;15.10;10.00;;;;;;;2.69;77.62;99695.61;208386;1316;139213;-74
2022/02/03 18:47:47;;;;;;;20.10;9.40;;;;;;;2.69;77.12;99680.34;208335;1317;139552;-73
2022/02/03 18:52:42;;;;;;;21.80;8.20;;;;;;;2.71;77.01;99676.27;206989;1320;141171;-76
2022/02/03 18:57:55;;;;;;;16.40;9.50;;;;;;;2.66;77.06;99672.94;207778;1316;139647;-76
2022/02/03 19:09:22;;;;;;;16.30;7.60;;;;;;;2.63;76.90;99669.98;207970;1316;139485;-71
2022/02/03 20:08:40;;;;;;;17.40;10.00;;;;;;;2.69;76.93;99635.64;207120;1318;141376;-75
2022/02/03 20:13:46;;;;;;;22.30;9.00;;;;;;;2.71;76.60;99634.98;208765;1318;139275;-75
2022/02/03 20:18:52;;;;;;;16.50;8.30;;;;;;;2.73;76.75;99635.32;208702;1317;139743;-75
2022/02/03 20:23:55;;;;;;;18.00;10.10;;;;;;;2.74;76.69;99632.51;208308;1318;140088;-77
2022/02/03 20:28:58;;;;;;;28.40;10.00;;;;;;;2.75;76.36;99627.84;209044;1318;152983;-72
2022/02/03 20:34:01;;;;;;;18.20;7.80;;;;;;;2.79;76.52;99622.08;209542;1316;140209;-75
2022/02/03 20:39:04;;;;;;;17.80;8.20;;;;;;;2.82;76.63;99615.70;207923;1314;140452;-68
2022/02/03 20:44:16;;;;;;;23.30;8.70;;;;;;;2.84;76.29;99609.05;208909;1315;140806;-75
2022/02/03 20:49:21;;;;;;;21.60;9.00;;;;;;;2.83;76.24;99610.14;208582;1318;140413;-76
2022/02/03 20:54:26;;;;;;;17.40;9.00;;;;;;;2.79;76.20;99607.02;207657;1320;139491;-75
2022/02/03 20:59:47;;;;;;;21.60;10.10;;;;;;;2.78;76.25;99609.88;208520;1318;139649;-75
2022/02/03 21:05:05;;;;;;;18.90;8.90;;;;;;;2.80;76.37;99609.45;207183;1316;140124;-74
2022/02/03 21:10:16;;;;;;;14.90;8.90;;;;;;;2.81;76.15;99606.55;207553;1318;139308;-72
2022/02/03 21:15:30;;;;;;;20.70;9.70;;;;;;;2.82;76.37;99607.20;208220;1314;139534;-74
2022/02/03 21:20:35;;;;;;;15.30;9.00;;;;;;;2.81;76.48;99603.95;207337;1316;140635;-70
2022/02/03 21:25:44;;;;;;;24.80;9.40;;;;;;;2.84;76.52;99602.65;207135;1318;140963;-74
2022/02/03 21:30:49;;;;;;;24.60;12.40;;;;;;;2.87;76.66;99601.10;207276;1317;141466;-73
2022/02/03 21:36:09;;;;;;;19.60;9.70;;;;;;;2.86;76.74;99601.74;207754;1318;140074;-78
2022/02/03 21:41:14;;;;;;;16.30;9.00;;;;;;;2.84;76.69;99589.16;207688;1315;141706;-76
2022/02/03 21:46:18;;;;;;;24.80;10.60;;;;;;;2.81;76.61;99592.94;207009;1318;140980;-75
2022/02/03 21:51:25;;;;;;;235.80;109.00;;;;;;;2.77;77.13;99595.82;207602;1317;141146;-69
2022/02/03 21:56:32;;;;;;;51.90;31.30;;;;;;;2.74;77.13;99596.45;207628;1317;142665;-75
2022/02/03 22:01:45;;;;;;;31.10;22.00;;;;;;;2.72;77.20;99591.87;207380;1316;141114;-78
2022/02/03 22:06:48;;;;;;;24.60;13.80;;;;;;;2.72;77.57;99590.48;208015;1317;141259;-75
2022/02/03 22:11:51;;;;;;;26.60;13.60;;;;;;;2.73;77.61;99582.19;207295;1317;142223;-67
2022/02/03 22:16:54;;;;;;;21.60;9.90;;;;;;;2.75;77.83;99571.88;208076;1316;141859;-74
2022/02/03 22:22:35;;;;;;;18.60;10.40;;;;;;;2.73;77.91;99571.02;207348;1316;140848;-73
2022/02/03 22:48:46;;;;;;;24.20;12.50;;;;;;;2.58;78.76;99541.14;208760;1317;141803;-79
2022/02/03 22:53:49;;;;;;;19.10;9.90;;;;;;;2.57;79.04;99541.63;208945;1316;139263;-76
2022/02/03 22:59:32;;;;;;;30.30;12.50;;;;;;;2.59;78.86;99541.92;208509;1318;139618;-74
2022/02/03 23:04:29;;;;;;;26.50;11.30;;;;;;;2.63;79.28;99543.05;207372;1316;139993;-70
2022/02/03 23:20:14;;;;;;;21.80;12.10;;;;;;;2.54;80.12;99530.25;207157;1317;138813;-76
2022/02/03 23:25:21;;;;;;;20.50;10.40;;;;;;;2.51;80.02;99523.26;208375;1316;139973;-73
2022/02/03 23:30:25;;;;;;;16.50;9.40;;;;;;;2.52;80.12;99527.52;207384;1316;140372;-81
2022/02/03 23:35:36;;;;;;;19.30;9.80;;;;;;;2.53;80.42;99525.46;206887;1317;139962;-71
2022/02/03 23:46:24;;;;;;;22.70;12.60;;;;;;;2.60;80.74;99522.11;206427;1322;140284;-68
